createdAt,value
2018-10-07T00:02:45.944Z,13.16
2018-10-07T00:06:08.675Z,13.02
2018-10-07T00:09:31.497Z,12.95
2018-10-07T00:12:56.335Z,13.08
2018-10-07T00:16:19.104Z,12.95
2018-10-07T00:19:44.059Z,12.71
2018-10-07T00:23:07.077Z,13.28
2018-10-07T00:26:29.982Z,12.64
2018-10-07T00:29:53.657Z,12.71
2018-10-07T00:33:16.500Z,12.85
2018-10-07T00:36:43.806Z,12.54
2018-10-07T00:40:06.554Z,13.09
2018-10-07T00:43:29.540Z,12.96
2018-10-07T00:46:52.272Z,12.12
2018-10-07T00:50:15.134Z,12.60
2018-10-07T00:53:38.197Z,12.73
2018-10-07T00:57:01.055Z,12.50
2018-10-07T01:00:23.799Z,12.17
2018-10-07T01:03:46.715Z,11.89
2018-10-07T01:07:09.696Z,12.00
2018-10-07T01:10:33.350Z,12.29
2018-10-07T01:13:56.016Z,12.57
2018-10-07T01:17:18.612Z,12.44
2018-10-07T01:20:41.276Z,12.55
2018-10-07T01:24:03.861Z,13.04
2018-10-07T01:27:26.609Z,12.82
2018-10-07T01:30:49.256Z,13.00
2018-10-07T01:34:11.903Z,12.58
2018-10-07T01:37:34.811Z,12.18
2018-10-07T01:40:57.449Z,12.14
2018-10-07T01:44:20.403Z,12.42
2018-10-07T01:47:43.143Z,12.20
2018-10-07T01:51:06.160Z,12.39
2018-10-07T01:54:28.887Z,11.84
2018-10-07T01:57:51.921Z,11.98
2018-10-07T02:01:18.858Z,12.55
2018-10-07T02:04:41.719Z,12.56
2018-10-07T02:08:10.400Z,12.49
2018-10-07T02:11:32.852Z,12.90
2018-10-07T02:14:55.393Z,12.03
2018-10-07T02:18:18.159Z,11.84
2018-10-07T02:21:40.646Z,11.99
2018-10-07T02:25:03.212Z,11.49
2018-10-07T02:28:25.689Z,10.88
2018-10-07T02:31:48.873Z,10.52
2018-10-07T02:35:11.758Z,10.90
2018-10-07T02:38:34.399Z,11.64
2018-10-07T02:41:57.274Z,11.66
2018-10-07T02:45:21.480Z,11.50
2018-10-07T02:48:44.229Z,11.80
2018-10-07T02:52:06.786Z,11.65
2018-10-07T02:55:30.969Z,12.23
2018-10-07T02:58:53.543Z,12.32
2018-10-07T03:02:16.228Z,12.26
2018-10-07T03:05:38.937Z,12.56
2018-10-07T03:09:01.986Z,12.38
2018-10-07T03:12:29.388Z,12.38
2018-10-07T03:15:53.352Z,12.08
2018-10-07T03:19:16.059Z,11.95
2018-10-07T03:22:38.739Z,12.02
2018-10-07T03:26:03.922Z,12.02
2018-10-07T03:29:26.802Z,12.31
2018-10-07T03:32:49.307Z,12.46
2018-10-07T03:36:12.242Z,12.15
2018-10-07T03:39:36.519Z,12.35
2018-10-07T03:42:59.283Z,12.41
2018-10-07T03:46:21.735Z,12.44
2018-10-07T03:49:45.318Z,12.44
2018-10-07T03:56:46.034Z,12.99
2018-10-07T04:00:08.973Z,12.81
2018-10-07T04:03:31.752Z,12.77
2018-10-07T04:06:54.417Z,12.64
2018-10-07T04:10:17.147Z,12.77
2018-10-07T04:13:40.493Z,11.45
2018-10-07T04:17:03.251Z,12.11
2018-10-07T04:20:25.936Z,12.07
2018-10-07T04:23:49.270Z,12.13
2018-10-07T04:27:12.027Z,12.35
2018-10-07T04:30:34.468Z,12.30
2018-10-07T04:33:57.167Z,12.66
2018-10-07T04:37:20.152Z,12.40
2018-10-07T04:40:43.209Z,12.21
2018-10-07T04:44:05.711Z,11.79
2018-10-07T04:47:28.483Z,11.75
2018-10-07T04:50:51.427Z,11.85
2018-10-07T04:54:14.070Z,11.83
2018-10-07T04:57:36.802Z,11.63
2018-10-07T05:00:59.698Z,11.40
2018-10-07T05:04:22.318Z,11.20
2018-10-07T05:07:45.821Z,11.01
2018-10-07T05:11:08.628Z,11.03
2018-10-07T05:14:31.382Z,11.33
2018-10-07T05:17:54.292Z,11.68
2018-10-07T05:21:17.057Z,11.48
2018-10-07T05:24:39.680Z,11.27
2018-10-07T05:28:02.469Z,11.50
2018-10-07T05:31:24.931Z,11.76
2018-10-07T05:34:47.909Z,11.62
2018-10-07T05:38:16.080Z,11.99
2018-10-07T05:41:39.764Z,12.41
2018-10-07T05:45:02.429Z,11.82
2018-10-07T05:48:25.187Z,11.94
2018-10-07T05:51:48.075Z,12.04
2018-10-07T05:55:10.865Z,12.34
2018-10-07T05:58:34.571Z,12.87
2018-10-07T06:02:00.734Z,11.59
2018-10-07T06:05:23.115Z,11.43
2018-10-07T06:08:45.712Z,11.83
2018-10-07T06:12:08.265Z,11.02
2018-10-07T06:15:33.253Z,11.79
2018-10-07T06:18:55.921Z,12.18
2018-10-07T06:22:20.807Z,12.81
2018-10-07T06:25:43.619Z,12.83
2018-10-07T06:29:06.076Z,13.29
2018-10-07T06:32:28.637Z,13.23
2018-10-07T06:35:51.210Z,13.21
2018-10-07T06:39:14.027Z,12.07
2018-10-07T06:42:36.937Z,12.25
2018-10-07T06:45:59.623Z,12.87
2018-10-07T06:49:22.393Z,11.63
2018-10-07T06:52:44.867Z,11.22
2018-10-07T06:56:07.378Z,10.94
2018-10-07T06:59:30.007Z,11.32
2018-10-07T07:02:52.409Z,11.50
2018-10-07T07:06:15.033Z,12.49
2018-10-07T07:09:37.810Z,13.23
2018-10-07T07:13:00.441Z,13.40
2018-10-07T07:16:23.021Z,13.38
2018-10-07T07:19:45.694Z,14.12
2018-10-07T07:23:08.385Z,14.61
2018-10-07T07:26:31.149Z,14.59
2018-10-07T07:29:53.715Z,14.62
2018-10-07T07:33:17.111Z,13.87
2018-10-07T07:36:41.160Z,14.40
2018-10-07T07:40:04.268Z,14.98
2018-10-07T07:43:28.381Z,15.31
2018-10-07T07:46:51.269Z,15.30
2018-10-07T07:50:13.928Z,14.94
2018-10-07T07:53:36.683Z,15.26
2018-10-07T07:56:59.270Z,15.57
2018-10-07T08:00:22.108Z,15.72
2018-10-07T08:03:44.860Z,16.09
2018-10-07T08:07:07.609Z,16.10
2018-10-07T08:10:30.162Z,15.33
2018-10-07T08:13:52.713Z,15.73
2018-10-07T08:17:15.420Z,15.15
2018-10-07T08:20:37.988Z,15.01
2018-10-07T08:24:00.342Z,14.78
2018-10-07T08:27:23.788Z,15.51
2018-10-07T08:30:46.564Z,15.99
2018-10-07T08:34:09.053Z,15.73
2018-10-07T08:37:31.600Z,16.31
2018-10-07T08:40:54.269Z,16.92
2018-10-07T08:44:16.886Z,17.08
2018-10-07T08:47:39.618Z,16.82
2018-10-07T08:51:02.355Z,16.40
2018-10-07T08:54:24.904Z,15.71
2018-10-07T08:57:47.475Z,15.79
2018-10-07T09:01:10.173Z,16.83
2018-10-07T09:04:32.925Z,16.47
2018-10-07T09:07:55.538Z,16.19
2018-10-07T09:11:18.270Z,16.94
2018-10-07T09:14:40.974Z,17.04
2018-10-07T09:18:03.641Z,16.28
2018-10-07T09:21:26.221Z,16.53
2018-10-07T09:24:48.766Z,16.20
2018-10-07T09:28:11.451Z,15.51
2018-10-07T09:31:34.222Z,15.58
2018-10-07T09:34:56.789Z,15.76
2018-10-07T09:38:19.739Z,16.19
2018-10-07T09:41:42.319Z,16.30
2018-10-07T09:45:05.072Z,16.79
2018-10-07T09:48:27.642Z,17.04
2018-10-07T09:51:50.202Z,16.47
2018-10-07T09:55:12.746Z,15.99
2018-10-07T09:58:35.366Z,15.80
2018-10-07T10:01:57.902Z,15.66
2018-10-07T10:05:20.420Z,15.60
2018-10-07T10:08:43.151Z,15.83
2018-10-07T10:13:02.417Z,15.79
2018-10-07T10:17:29.057Z,16.16
2018-10-07T10:20:59.119Z,15.68
2018-10-07T10:32:10.294Z,16.48
2018-10-07T10:36:11.081Z,16.27
2018-10-07T10:39:45.926Z,16.30
2018-10-07T10:44:22.409Z,16.47
2018-10-07T10:47:46.341Z,16.49
2018-10-07T10:52:21.049Z,15.91
2018-10-07T10:56:19.076Z,15.61
2018-10-07T10:59:50.006Z,15.38
2018-10-07T11:03:24.135Z,15.53
2018-10-07T11:31:27.061Z,15.78
2018-10-07T11:37:30.759Z,15.57
2018-10-07T11:41:02.828Z,15.77
2018-10-07T11:44:55.253Z,15.60
2018-10-07T11:48:32.058Z,15.84
2018-10-07T11:52:16.459Z,15.60
2018-10-07T11:55:39.170Z,15.66
2018-10-07T11:59:02.556Z,15.58
2018-10-07T12:02:26.519Z,15.33
2018-10-07T12:05:49.270Z,15.46
2018-10-07T12:09:13.787Z,15.81
2018-10-07T12:12:38.736Z,15.57
2018-10-07T12:16:02.078Z,15.41
2018-10-07T12:19:24.921Z,15.33
2018-10-07T12:22:48.274Z,15.16
2018-10-07T12:26:10.734Z,15.67
2018-10-07T12:29:33.162Z,15.68
2018-10-07T12:32:55.640Z,15.60
2018-10-07T12:36:18.321Z,15.67
2018-10-07T12:39:40.810Z,15.64
2018-10-07T12:43:04.565Z,15.87
2018-10-07T12:46:27.841Z,16.17
2018-10-07T12:49:50.532Z,15.73
2018-10-07T12:53:13.975Z,15.36
2018-10-07T12:56:36.581Z,15.62
2018-10-07T12:59:59.559Z,16.08
2018-10-07T13:03:22.741Z,15.88
2018-10-07T13:06:45.271Z,15.74
2018-10-07T13:10:07.745Z,16.08
2018-10-07T13:13:30.239Z,15.85
2018-10-07T13:16:53.925Z,15.57
2018-10-07T13:20:16.415Z,15.90
2018-10-07T13:23:38.953Z,15.37
2018-10-07T13:27:01.450Z,16.08
2018-10-07T13:30:23.906Z,15.88
2018-10-07T13:33:46.411Z,15.84
2018-10-07T13:37:08.878Z,15.73
2018-10-07T13:40:32.321Z,15.51
2018-10-07T13:43:55.265Z,16.12
2018-10-07T13:47:17.652Z,16.11
2018-10-07T13:50:40.166Z,15.89
2018-10-07T13:54:02.607Z,15.35
2018-10-07T13:57:24.977Z,15.32
2018-10-07T14:00:47.414Z,15.63
2018-10-07T14:04:09.950Z,15.92
2018-10-07T14:07:32.615Z,16.12
2018-10-07T14:10:55.097Z,16.11
2018-10-07T14:14:17.535Z,16.18
2018-10-07T14:17:40.055Z,16.15
2018-10-07T14:21:02.536Z,15.99
2018-10-07T14:24:25.195Z,16.24
2018-10-07T14:27:47.903Z,15.99
2018-10-07T14:31:11.395Z,16.25
2018-10-07T14:34:34.856Z,15.97
2018-10-07T14:37:57.291Z,16.28
2018-10-07T14:41:19.810Z,16.05
2018-10-07T14:44:44.218Z,15.84
2018-10-07T14:48:07.358Z,15.62
2018-10-07T14:51:29.927Z,15.96
2018-10-07T14:54:52.607Z,15.90
2018-10-07T14:58:15.241Z,15.70
2018-10-07T15:01:38.876Z,16.19
2018-10-07T15:05:01.598Z,16.54
2018-10-07T15:08:24.175Z,16.29
2018-10-07T15:11:46.662Z,16.00
2018-10-07T15:15:09.109Z,15.63
2018-10-07T15:18:31.575Z,15.37
2018-10-07T15:21:54.098Z,15.55
2018-10-07T15:25:16.653Z,15.40
2018-10-07T15:28:39.121Z,15.44
2018-10-07T15:32:01.833Z,15.51
2018-10-07T15:35:24.452Z,15.57
2018-10-07T15:38:46.943Z,15.54
2018-10-07T15:42:09.362Z,15.71
2018-10-07T15:48:59.583Z,15.02
2018-10-07T15:52:22.137Z,14.84
2018-10-07T15:55:44.666Z,14.82
2018-10-07T15:59:07.334Z,14.88
2018-10-07T16:02:30.880Z,14.90
2018-10-07T16:05:53.504Z,15.17
2018-10-07T16:09:15.930Z,15.29
2018-10-07T16:12:38.522Z,14.96
2018-10-07T16:16:01.153Z,15.12
2018-10-07T16:19:23.703Z,15.28
2018-10-07T16:22:46.231Z,15.13
2018-10-07T16:26:08.781Z,15.04
2018-10-07T16:29:32.030Z,15.11
2018-10-07T16:32:54.800Z,14.83
2018-10-07T16:36:17.343Z,14.88
2018-10-07T16:39:39.952Z,14.93
2018-10-07T16:43:02.526Z,15.20
2018-10-07T16:46:25.071Z,15.26
2018-10-07T16:49:47.574Z,15.27
2018-10-07T16:53:10.228Z,14.90
2018-10-07T16:56:32.876Z,14.95
2018-10-07T16:59:55.441Z,15.16
2018-10-07T17:03:18.076Z,15.03
2018-10-07T17:06:40.884Z,15.07
2018-10-07T17:10:03.717Z,15.05
2018-10-07T17:13:26.646Z,14.85
2018-10-07T17:16:49.310Z,14.85
2018-10-07T17:20:11.834Z,15.05
2018-10-07T17:23:34.530Z,14.94
2018-10-07T17:26:57.263Z,15.04
2018-10-07T17:30:19.765Z,14.70
2018-10-07T17:33:42.238Z,14.72
2018-10-07T17:37:04.588Z,14.63
2018-10-07T17:40:27.222Z,14.86
2018-10-07T17:43:49.857Z,14.95
2018-10-07T17:47:12.451Z,14.66
2018-10-07T17:50:35.011Z,14.59
2018-10-07T17:53:57.433Z,14.25
2018-10-07T17:57:20.047Z,14.37
2018-10-07T18:00:42.548Z,14.48
2018-10-07T18:04:05.042Z,14.55
2018-10-07T18:12:10.139Z,13.99
2018-10-07T18:15:32.626Z,14.09
2018-10-07T18:18:55.246Z,13.90
2018-10-07T18:22:17.778Z,13.83
2018-10-07T18:25:40.401Z,13.77
2018-10-07T18:29:03.079Z,13.91
2018-10-07T18:32:25.558Z,13.70
2018-10-07T18:35:48.144Z,13.38
2018-10-07T18:39:10.758Z,13.28
2018-10-07T18:42:33.513Z,13.04
2018-10-07T18:45:56.359Z,13.01
2018-10-07T18:49:19.213Z,12.96
2018-10-07T18:52:41.844Z,13.14
2018-10-07T18:56:04.483Z,13.11
2018-10-07T18:59:27.032Z,13.27
2018-10-07T19:02:49.712Z,12.93
2018-10-07T19:06:12.247Z,12.73
2018-10-07T19:09:34.813Z,12.49
2018-10-07T19:12:57.344Z,12.44
2018-10-07T19:16:19.805Z,12.43
2018-10-07T19:19:43.301Z,12.43
2018-10-07T19:23:06.029Z,12.34
2018-10-07T19:26:28.610Z,12.32
2018-10-07T19:29:51.492Z,12.21
2018-10-07T19:33:14.119Z,12.12
2018-10-07T19:36:36.572Z,12.10
2018-10-07T19:39:59.170Z,12.24
2018-10-07T19:43:22.281Z,12.25
2018-10-07T19:46:44.811Z,12.14
2018-10-07T19:50:07.367Z,12.16
2018-10-07T19:53:30.170Z,12.23
2018-10-07T19:56:54.046Z,12.06
2018-10-07T20:00:16.741Z,12.06
2018-10-07T20:03:39.285Z,11.99
2018-10-07T20:07:01.656Z,12.06
2018-10-07T20:10:24.189Z,12.02
2018-10-07T20:13:47.071Z,12.02
2018-10-07T20:17:09.745Z,11.98
2018-10-07T20:20:32.438Z,11.92
2018-10-07T20:23:55.139Z,11.85
2018-10-07T20:27:17.835Z,11.93
2018-10-07T20:30:40.329Z,12.03
2018-10-07T20:34:03.054Z,11.78
2018-10-07T20:37:26.051Z,11.98
2018-10-07T20:40:48.872Z,11.68
2018-10-07T20:44:11.357Z,11.80
2018-10-07T20:47:34.188Z,11.97
2018-10-07T20:50:56.922Z,11.85
2018-10-07T20:54:20.702Z,11.48
2018-10-07T20:57:43.789Z,11.63
2018-10-07T21:01:06.229Z,11.46
2018-10-07T21:04:28.854Z,10.93
2018-10-07T21:07:51.375Z,11.07
2018-10-07T21:11:13.880Z,10.64
2018-10-07T21:14:36.399Z,10.86
2018-10-07T21:17:59.011Z,10.92
2018-10-07T21:21:21.476Z,10.86
2018-10-07T21:24:44.024Z,10.64
2018-10-07T21:28:06.646Z,10.85
2018-10-07T21:31:29.248Z,10.79
2018-10-07T21:34:51.711Z,10.47
2018-10-07T21:38:14.100Z,9.92
2018-10-07T21:41:36.623Z,9.88
2018-10-07T21:44:59.115Z,10.20
2018-10-07T21:48:21.476Z,9.83
2018-10-07T21:51:43.870Z,9.71
2018-10-07T21:55:06.598Z,9.63
2018-10-07T21:58:29.111Z,9.68
2018-10-07T22:01:51.560Z,10.15
2018-10-07T22:05:14.199Z,10.17
2018-10-07T22:08:36.840Z,10.38
2018-10-07T22:11:59.325Z,10.22
2018-10-07T22:15:22.066Z,10.28
2018-10-07T22:18:44.603Z,10.51
2018-10-07T22:22:07.186Z,10.32
2018-10-07T22:25:29.670Z,10.16
2018-10-07T22:28:52.486Z,10.08
2018-10-07T22:32:15.117Z,10.02
2018-10-07T22:35:37.861Z,9.94
2018-10-07T22:39:00.729Z,9.97
2018-10-07T22:42:23.320Z,9.51
2018-10-07T22:45:46.116Z,9.65
2018-10-07T22:49:08.721Z,9.86
2018-10-07T22:52:31.451Z,9.77
2018-10-07T22:55:53.982Z,9.94
2018-10-07T22:59:16.704Z,9.70
2018-10-07T23:02:39.161Z,9.78
2018-10-07T23:06:01.552Z,9.91
2018-10-07T23:09:24.098Z,9.92
2018-10-07T23:12:46.529Z,9.83
2018-10-07T23:16:09.065Z,9.81
2018-10-07T23:19:31.566Z,9.62
2018-10-07T23:22:54.061Z,9.63
2018-10-07T23:26:16.553Z,9.65
2018-10-07T23:29:39.214Z,9.55
2018-10-07T23:33:01.672Z,9.62
2018-10-07T23:36:24.138Z,9.69
2018-10-07T23:39:46.695Z,9.66
2018-10-07T23:43:09.388Z,9.10
2018-10-07T23:46:31.951Z,9.07
2018-10-07T23:49:54.422Z,9.01
2018-10-07T23:53:17.040Z,9.41
2018-10-07T23:56:39.594Z,9.26
